createdAt,value
2023-03-23T00:00:12.428Z,7.300
2023-03-23T00:01:12.777Z,7.500
2023-03-23T00:02:12.116Z,7.800
2023-03-23T00:03:12.979Z,7.100
2023-03-23T00:04:12.478Z,7.300
2023-03-23T00:05:12.772Z,7.000
2023-03-23T00:06:12.863Z,7.500
2023-03-23T00:07:12.264Z,7.200
2023-03-23T00:08:12.008Z,8.100
2023-03-23T00:09:14.744Z,7.800
2023-03-23T00:10:12.244Z,7.800
2023-03-23T00:11:12.576Z,7.400
2023-03-23T00:12:12.544Z,7.600
2023-03-23T00:13:12.085Z,7.300
2023-03-23T00:14:12.061Z,7.000
2023-03-23T00:15:12.813Z,7.300
2023-03-23T00:16:18.570Z,7.000
2023-03-23T00:17:12.153Z,7.600
2023-03-23T00:18:12.793Z,7.300
2023-03-23T00:19:12.806Z,7.000
2023-03-23T00:20:12.517Z,7.200
2023-03-23T00:21:12.072Z,7.000
2023-03-23T00:22:12.358Z,8.000
2023-03-23T00:24:12.129Z,7.600
2023-03-23T00:25:12.668Z,7.000
2023-03-23T00:26:12.021Z,7.600
2023-03-23T00:27:17.108Z,6.900
2023-03-23T00:28:11.904Z,6.500
2023-03-23T00:29:12.421Z,7.200
2023-03-23T00:30:12.864Z,6.800
2023-03-23T00:31:12.160Z,7.100
2023-03-23T00:32:12.628Z,7.200
2023-03-23T00:33:12.884Z,7.000
2023-03-23T00:34:12.556Z,6.600
2023-03-23T00:35:11.927Z,7.100
2023-03-23T00:36:12.536Z,6.400
2023-03-23T00:37:12.257Z,6.600
2023-03-23T00:38:12.872Z,7.000
2023-03-23T00:39:12.904Z,7.200
2023-03-23T00:40:12.284Z,6.100
2023-03-23T00:41:12.996Z,7.400
2023-03-23T00:42:14.041Z,6.500
2023-03-23T00:43:12.274Z,6.600
2023-03-23T00:44:12.789Z,6.200
2023-03-23T00:45:12.774Z,6.200
2023-03-23T00:46:12.413Z,6.900
2023-03-23T00:47:12.786Z,6.800
2023-03-23T00:48:12.129Z,6.600
2023-03-23T00:49:12.853Z,6.900
2023-03-23T00:50:12.479Z,6.600
2023-03-23T00:51:12.333Z,7.100
2023-03-23T00:52:12.802Z,7.100
2023-03-23T00:53:12.373Z,6.800
2023-03-23T00:54:12.746Z,6.800
2023-03-23T00:55:11.989Z,6.500
2023-03-23T00:56:13.099Z,7.400
2023-03-23T00:57:12.292Z,6.800
2023-03-23T00:58:12.160Z,7.300
2023-03-23T00:59:12.552Z,7.900
2023-03-23T01:00:20.380Z,7.900
2023-03-23T01:01:13.053Z,7.800
2023-03-23T01:02:12.236Z,7.300
2023-03-23T01:03:12.432Z,7.400
2023-03-23T01:04:12.956Z,7.800
2023-03-23T01:05:12.720Z,7.400
2023-03-23T01:06:12.759Z,7.600
2023-03-23T01:08:12.600Z,8.400
2023-03-23T01:09:11.828Z,7.400
2023-03-23T01:10:12.422Z,7.900
2023-03-23T01:11:12.861Z,6.900
2023-03-23T01:13:12.889Z,8.200
2023-03-23T01:14:12.864Z,7.500
2023-03-23T01:15:12.072Z,8.000
2023-03-23T01:16:17.841Z,7.300
2023-03-23T01:17:12.272Z,8.100
2023-03-23T01:18:12.509Z,7.400
2023-03-23T01:19:12.733Z,8.600
2023-03-23T01:20:12.166Z,7.900
2023-03-23T01:21:12.646Z,8.200
2023-03-23T01:22:12.900Z,7.700
2023-03-23T01:23:12.671Z,7.700
2023-03-23T01:26:12.297Z,7.800
2023-03-23T01:27:12.748Z,7.700
2023-03-23T01:28:12.532Z,8.400
2023-03-23T01:30:12.735Z,7.800
2023-03-23T01:31:14.158Z,7.400
2023-03-23T01:32:12.036Z,8.200
2023-03-23T01:33:12.724Z,7.400
2023-03-23T01:34:11.909Z,7.900
2023-03-23T01:35:16.294Z,7.400
2023-03-23T01:36:12.969Z,7.400
2023-03-23T01:37:12.368Z,7.500
2023-03-23T01:38:12.778Z,7.300
2023-03-23T01:39:12.042Z,8.100
2023-03-23T01:40:12.784Z,7.100
2023-03-23T01:41:12.038Z,8.100
2023-03-23T01:42:12.651Z,7.300
2023-03-23T01:43:12.005Z,7.000
2023-03-23T01:44:12.409Z,7.600
2023-03-23T01:45:12.858Z,6.700
2023-03-23T01:46:13.368Z,7.200
2023-03-23T01:47:13.221Z,6.900
2023-03-23T01:48:12.058Z,7.400
2023-03-23T01:49:12.765Z,7.800
2023-03-23T01:50:12.403Z,7.000
2023-03-23T01:51:12.239Z,6.600
2023-03-23T01:52:15.191Z,6.900
2023-03-23T01:53:12.446Z,7.200
2023-03-23T01:54:12.876Z,6.500
2023-03-23T01:55:12.336Z,7.000
2023-03-23T01:56:13.212Z,7.200
2023-03-23T01:57:12.340Z,6.500
2023-03-23T01:58:11.988Z,7.500
2023-03-23T01:59:12.297Z,6.700
2023-03-23T02:00:16.515Z,6.900
2023-03-23T02:01:12.440Z,6.900
2023-03-23T02:02:13.538Z,6.700
2023-03-23T02:03:12.084Z,6.800
2023-03-23T02:04:12.664Z,6.800
2023-03-23T02:05:12.811Z,6.600
2023-03-23T02:06:12.516Z,6.300
2023-03-23T02:07:12.210Z,6.900
2023-03-23T02:08:12.529Z,6.200
2023-03-23T02:09:21.749Z,7.200
2023-03-23T02:11:21.788Z,6.800
2023-03-23T02:12:13.053Z,6.500
2023-03-23T02:13:13.414Z,6.700
2023-03-23T02:14:12.925Z,6.700
2023-03-23T02:15:13.214Z,6.800
2023-03-23T02:16:13.562Z,6.900
2023-03-23T02:17:13.838Z,6.900
2023-03-23T02:18:13.170Z,6.500
2023-03-23T02:19:13.855Z,6.800
2023-03-23T02:20:13.513Z,6.700
2023-03-23T02:21:13.997Z,6.700
2023-03-23T02:23:13.893Z,6.700
2023-03-23T02:24:13.231Z,6.800
2023-03-23T02:25:13.816Z,6.900
2023-03-23T02:26:13.300Z,6.300
2023-03-23T02:27:14.337Z,6.900
2023-03-23T02:28:13.628Z,6.100
2023-03-23T02:29:13.372Z,6.900
2023-03-23T02:30:13.579Z,6.700
2023-03-23T02:31:13.209Z,6.000
2023-03-23T02:32:13.251Z,6.500
2023-03-23T02:33:13.629Z,6.500
2023-03-23T02:34:13.608Z,6.500
2023-03-23T02:35:13.956Z,6.300
2023-03-23T02:36:13.448Z,7.000
2023-03-23T02:37:13.933Z,6.000
2023-03-23T02:38:13.132Z,6.400
2023-03-23T02:39:13.837Z,6.000
2023-03-23T02:41:13.878Z,6.300
2023-03-23T02:42:13.871Z,5.800
2023-03-23T02:43:13.160Z,6.300
2023-03-23T02:44:13.738Z,5.900
2023-03-23T02:46:14.406Z,5.700
2023-03-23T02:47:13.725Z,5.900
2023-03-23T02:48:12.901Z,5.500
2023-03-23T02:49:14.154Z,6.000
2023-03-23T02:50:13.204Z,6.000
2023-03-23T02:51:13.451Z,5.600
2023-03-23T02:52:16.534Z,5.500
2023-03-23T02:53:13.301Z,6.200
2023-03-23T02:54:14.024Z,6.100
2023-03-23T02:56:13.329Z,5.400
2023-03-23T02:57:12.909Z,5.300
2023-03-23T02:58:13.912Z,5.300
2023-03-23T03:01:13.992Z,5.100
2023-03-23T03:02:14.327Z,4.900
2023-03-23T03:03:13.072Z,4.900
2023-03-23T03:04:14.779Z,5.000
2023-03-23T03:05:13.562Z,5.300
2023-03-23T03:06:14.637Z,4.500
2023-03-23T03:07:14.213Z,4.900
2023-03-23T03:09:13.587Z,5.500
2023-03-23T03:10:12.870Z,5.300
2023-03-23T03:11:13.873Z,5.000
2023-03-23T03:12:13.161Z,5.000
2023-03-23T03:13:14.110Z,4.500
2023-03-23T03:14:13.789Z,4.600
2023-03-23T03:15:13.725Z,4.500
2023-03-23T03:17:12.965Z,4.800
2023-03-23T03:18:13.383Z,5.000
2023-03-23T03:19:14.558Z,4.600
2023-03-23T03:20:13.613Z,4.900
2023-03-23T03:21:14.580Z,4.700
2023-03-23T03:22:14.057Z,4.300
2023-03-23T03:25:18.770Z,4.500
2023-03-23T03:27:13.829Z,4.400
2023-03-23T03:28:13.277Z,4.500
2023-03-23T03:29:12.813Z,4.300
2023-03-23T03:30:13.274Z,4.100
2023-03-23T03:31:13.648Z,4.600
2023-03-23T03:32:13.236Z,4.100
2023-03-23T03:33:13.958Z,4.500
2023-03-23T03:34:13.357Z,4.300
2023-03-23T03:35:14.393Z,4.200
2023-03-23T03:36:13.374Z,4.700
2023-03-23T03:37:13.142Z,3.800
2023-03-23T03:38:14.498Z,3.800
2023-03-23T03:39:13.858Z,4.300
2023-03-23T03:40:13.576Z,3.800
2023-03-23T03:41:14.250Z,3.800
2023-03-23T03:42:13.768Z,4.300
2023-03-23T03:43:13.746Z,3.900
2023-03-23T03:45:12.889Z,3.800
2023-03-23T03:46:14.055Z,3.600
2023-03-23T03:47:13.312Z,3.900
2023-03-23T03:48:13.872Z,3.700
2023-03-23T03:49:14.404Z,4.100
2023-03-23T03:50:14.071Z,3.700
2023-03-23T03:51:13.237Z,4.200
2023-03-23T03:52:13.393Z,4.300
2023-03-23T03:53:12.941Z,3.600
2023-03-23T03:54:13.455Z,3.800
2023-03-23T03:55:14.142Z,4.100
2023-03-23T03:56:13.269Z,4.300
2023-03-23T03:57:13.696Z,3.800
2023-03-23T03:58:13.342Z,3.900
2023-03-23T03:59:24.993Z,3.700
2023-03-23T04:01:15.741Z,3.300
2023-03-23T04:02:14.839Z,4.000
2023-03-23T04:03:14.716Z,4.200
2023-03-23T04:05:14.557Z,3.900
2023-03-23T04:06:15.577Z,3.800
2023-03-23T04:08:23.973Z,3.200
2023-03-23T04:10:14.545Z,3.900
2023-03-23T04:12:17.529Z,3.600
2023-03-23T04:13:17.102Z,3.800
2023-03-23T04:14:17.498Z,3.800
2023-03-23T04:15:22.443Z,3.900
2023-03-23T04:16:29.454Z,3.700
2023-03-23T04:18:25.841Z,3.600
2023-03-23T04:19:23.240Z,3.700
2023-03-23T04:21:23.456Z,3.700
2023-03-23T04:22:23.248Z,3.500
2023-03-23T04:23:29.060Z,3.700
2023-03-23T04:24:55.862Z,4.000
2023-03-23T04:26:38.268Z,3.400
2023-03-23T04:27:35.918Z,3.600
2023-03-23T04:28:37.076Z,3.400
2023-03-23T04:29:36.681Z,3.400
2023-03-23T04:31:39.649Z,3.400
2023-03-23T04:32:37.292Z,3.500
2023-03-23T04:33:58.643Z,3.400
2023-03-23T04:35:45.981Z,3.300
2023-03-23T04:36:56.061Z,3.600
2023-03-23T04:38:46.479Z,3.400
2023-03-23T04:39:46.797Z,3.500
2023-03-23T04:40:46.100Z,3.900
2023-03-23T04:41:46.293Z,3.900
2023-03-23T04:42:46.502Z,3.800
2023-03-23T04:43:46.781Z,3.800
2023-03-23T04:44:45.942Z,3.400
2023-03-23T04:45:46.417Z,3.800
2023-03-23T04:46:46.724Z,3.800
2023-03-23T04:47:45.957Z,3.900
2023-03-23T04:48:46.225Z,3.900
2023-03-23T04:49:46.893Z,3.900
2023-03-23T04:50:46.101Z,4.000
2023-03-23T04:51:46.594Z,4.100
2023-03-23T04:52:45.929Z,3.800
2023-03-23T04:53:46.717Z,4.000
2023-03-23T04:54:45.893Z,3.500
2023-03-23T04:55:46.101Z,4.100
2023-03-23T04:56:46.316Z,3.600
2023-03-23T04:57:46.902Z,3.900
2023-03-23T04:58:47.116Z,4.000
2023-03-23T04:59:46.308Z,3.800
2023-03-23T05:00:46.820Z,4.300
2023-03-23T05:02:47.976Z,3.900
2023-03-23T05:03:46.580Z,4.000
2023-03-23T05:04:46.869Z,4.100
2023-03-23T05:05:46.213Z,3.900
2023-03-23T05:06:46.525Z,3.700
2023-03-23T05:07:47.008Z,3.900
2023-03-23T05:08:46.265Z,3.300
2023-03-23T05:10:51.102Z,3.400
2023-03-23T05:11:46.281Z,4.100
2023-03-23T05:12:46.486Z,3.900
2023-03-23T05:13:46.885Z,4.000
2023-03-23T05:14:52.062Z,3.700
2023-03-23T05:15:46.486Z,3.900
2023-03-23T05:16:46.513Z,3.700
2023-03-23T05:17:46.767Z,3.700
2023-03-23T05:18:45.983Z,3.100
2023-03-23T05:19:46.236Z,3.700
2023-03-23T05:20:46.457Z,4.300
2023-03-23T05:21:47.797Z,3.900
2023-03-23T05:23:46.228Z,3.900
2023-03-23T05:24:46.385Z,3.600
2023-03-23T05:25:46.621Z,3.600
2023-03-23T05:26:48.154Z,3.900
2023-03-23T05:27:46.349Z,4.000
2023-03-23T05:28:46.760Z,3.500
2023-03-23T05:29:47.059Z,4.000
2023-03-23T05:30:46.222Z,3.500
2023-03-23T05:31:46.721Z,4.000
2023-03-23T05:32:45.944Z,3.800
2023-03-23T05:33:46.226Z,3.700
2023-03-23T05:34:46.517Z,3.700
2023-03-23T05:35:46.917Z,3.500
2023-03-23T05:36:46.391Z,3.500
2023-03-23T05:37:46.666Z,3.600
2023-03-23T05:38:45.949Z,3.700
2023-03-23T05:39:46.166Z,3.700
2023-03-23T05:40:46.373Z,3.800
2023-03-23T05:42:46.568Z,3.500
2023-03-23T05:43:46.852Z,3.700
2023-03-23T05:44:49.613Z,3.900
2023-03-23T05:45:46.753Z,3.700
2023-03-23T05:47:46.309Z,3.600
2023-03-23T05:48:46.930Z,3.900
2023-03-23T05:49:46.145Z,3.200
2023-03-23T05:50:46.421Z,3.600
2023-03-23T05:51:46.632Z,3.600
2023-03-23T05:52:45.819Z,3.400
2023-03-23T05:53:46.667Z,3.700
2023-03-23T05:54:45.945Z,3.800
2023-03-23T05:55:46.175Z,3.900
2023-03-23T05:56:46.665Z,3.400
2023-03-23T05:57:45.848Z,3.400
2023-03-23T05:58:46.163Z,3.600
2023-03-23T05:59:46.767Z,3.700
2023-03-23T06:00:46.489Z,3.500
2023-03-23T06:01:51.014Z,3.600
2023-03-23T06:02:46.293Z,3.300
2023-03-23T06:03:46.916Z,3.700
2023-03-23T06:04:46.225Z,3.100
2023-03-23T06:05:45.910Z,3.200
2023-03-23T06:06:46.470Z,3.500
2023-03-23T06:07:46.814Z,3.400
2023-03-23T06:08:46.062Z,3.300
2023-03-23T06:09:46.289Z,3.900
2023-03-23T06:10:46.297Z,3.400
2023-03-23T06:11:46.491Z,3.800
2023-03-23T06:12:46.769Z,3.800
2023-03-23T06:13:45.950Z,3.500
2023-03-23T06:14:46.453Z,3.500
2023-03-23T06:15:46.730Z,3.600
2023-03-23T06:16:45.921Z,3.800
2023-03-23T06:17:46.141Z,3.700
2023-03-23T06:18:46.372Z,4.100
2023-03-23T06:19:46.604Z,4.600
2023-03-23T06:20:47.953Z,4.100
2023-03-23T06:21:46.344Z,5.200
2023-03-23T06:22:46.548Z,5.300
2023-03-23T06:23:45.856Z,5.200
2023-03-23T06:24:46.199Z,4.000
2023-03-23T06:25:46.389Z,3.500
2023-03-23T06:27:48.873Z,3.900
2023-03-23T06:28:46.172Z,4.100
2023-03-23T06:29:46.413Z,4.300
2023-03-23T06:30:46.644Z,3.700
2023-03-23T06:31:46.877Z,3.800
2023-03-23T06:32:46.022Z,4.000
2023-03-23T06:33:46.326Z,3.900
2023-03-23T06:34:46.569Z,3.900
2023-03-23T06:35:46.806Z,3.700
2023-03-23T06:36:46.129Z,3.700
2023-03-23T06:37:46.305Z,3.400
2023-03-23T06:38:46.518Z,3.600
2023-03-23T06:39:46.777Z,3.900
2023-03-23T06:40:46.010Z,3.500
2023-03-23T06:41:46.226Z,4.100
2023-03-23T06:42:46.465Z,3.900
2023-03-23T06:43:46.726Z,3.500
2023-03-23T06:44:45.891Z,3.400
2023-03-23T06:45:46.709Z,3.500
2023-03-23T06:46:45.920Z,3.900
2023-03-23T06:47:46.369Z,3.500
2023-03-23T06:48:46.760Z,3.700
2023-03-23T06:49:46.364Z,3.500
2023-03-23T06:50:46.639Z,3.400
2023-03-23T06:51:45.858Z,3.500
2023-03-23T06:52:46.129Z,3.700
2023-03-23T06:53:46.356Z,4.000
2023-03-23T06:54:46.666Z,4.100
2023-03-23T06:55:45.893Z,4.000
2023-03-23T06:56:46.112Z,4.100
2023-03-23T06:57:46.361Z,4.000
2023-03-23T06:58:46.660Z,4.300
2023-03-23T06:59:46.018Z,3.800
2023-03-23T07:00:46.366Z,3.800
2023-03-23T07:01:46.854Z,4.100
2023-03-23T07:02:46.051Z,3.800
2023-03-23T07:03:46.282Z,4.800
2023-03-23T07:04:46.590Z,4.200
2023-03-23T07:05:46.861Z,4.700
2023-03-23T07:06:46.141Z,5.100
2023-03-23T07:07:46.695Z,4.400
2023-03-23T07:09:56.058Z,4.400
2023-03-23T07:10:46.270Z,5.000
2023-03-23T07:11:46.446Z,4.300
2023-03-23T07:12:46.689Z,4.000
2023-03-23T07:13:45.872Z,4.300
2023-03-23T07:14:46.133Z,4.100
2023-03-23T07:15:46.333Z,4.300
2023-03-23T07:16:46.668Z,4.700
2023-03-23T07:17:45.848Z,4.200
2023-03-23T07:18:46.101Z,3.800
2023-03-23T07:19:46.635Z,4.300
2023-03-23T07:20:47.170Z,3.500
2023-03-23T07:21:46.292Z,3.800
2023-03-23T07:22:47.187Z,3.700
2023-03-23T07:23:46.404Z,3.800
2023-03-23T07:24:46.604Z,4.300
2023-03-23T07:25:46.816Z,3.800
2023-03-23T07:26:46.012Z,3.800
2023-03-23T07:27:46.252Z,4.000
2023-03-23T07:28:46.490Z,4.000
2023-03-23T07:29:46.736Z,4.200
2023-03-23T07:30:45.929Z,4.900
2023-03-23T07:31:46.147Z,4.100
2023-03-23T07:32:46.437Z,4.300
2023-03-23T07:33:46.637Z,3.800
2023-03-23T07:34:45.843Z,3.900
2023-03-23T07:35:46.153Z,4.200
2023-03-23T07:36:46.737Z,3.700
2023-03-23T07:37:45.989Z,3.400
2023-03-23T07:38:46.209Z,3.800
2023-03-23T07:39:46.405Z,4.200
2023-03-23T07:40:46.811Z,4.000
2023-03-23T07:41:46.029Z,4.800
2023-03-23T07:42:46.421Z,4.600
2023-03-23T07:43:46.613Z,4.300
2023-03-23T07:44:46.911Z,4.700
2023-03-23T07:45:46.100Z,4.600
2023-03-23T07:46:46.428Z,4.600
2023-03-23T07:47:49.872Z,4.300
2023-03-23T07:48:46.010Z,3.900
2023-03-23T07:49:50.597Z,4.400
2023-03-23T07:50:46.729Z,4.300
2023-03-23T07:51:46.101Z,4.600
2023-03-23T07:52:49.201Z,4.900
2023-03-23T07:53:47.448Z,6.100
2023-03-23T07:55:51.164Z,5.100
2023-03-23T07:56:46.657Z,5.500
2023-03-23T07:57:46.873Z,4.900
2023-03-23T07:58:46.131Z,4.500
2023-03-23T07:59:46.744Z,5.000
2023-03-23T08:00:45.929Z,4.800
2023-03-23T08:01:46.118Z,5.200
2023-03-23T08:02:51.026Z,4.400
2023-03-23T08:03:47.373Z,4.500
2023-03-23T08:04:46.642Z,4.200
2023-03-23T08:06:46.105Z,5.400
2023-03-23T08:07:51.233Z,4.500
2023-03-23T08:08:46.458Z,4.700
2023-03-23T08:09:46.735Z,4.900
2023-03-23T08:10:45.953Z,5.000
2023-03-23T08:11:46.102Z,6.100
2023-03-23T08:12:46.780Z,6.000
2023-03-23T08:13:46.019Z,5.100
2023-03-23T08:14:48.357Z,5.700
2023-03-23T08:15:46.520Z,4.900
2023-03-23T08:16:46.840Z,5.400
2023-03-23T08:19:46.478Z,4.900
2023-03-23T08:20:46.769Z,5.000
2023-03-23T08:21:45.932Z,5.100
2023-03-23T08:22:53.100Z,5.500
2023-03-23T08:24:46.540Z,6.000
2023-03-23T08:25:46.790Z,5.000
2023-03-23T08:26:46.421Z,5.400
2023-03-23T08:27:46.675Z,4.800
2023-03-23T08:28:48.476Z,5.200
2023-03-23T08:29:47.111Z,5.500
2023-03-23T08:32:46.773Z,5.800
2023-03-23T08:34:46.926Z,5.000
2023-03-23T08:35:46.210Z,5.200
2023-03-23T08:36:46.593Z,5.100
2023-03-23T08:37:46.848Z,5.200
2023-03-23T08:39:46.847Z,5.000
2023-03-23T08:40:47.745Z,5.700
2023-03-23T08:41:46.125Z,5.500
2023-03-23T08:42:52.389Z,5.100
2023-03-23T08:44:46.626Z,4.800
2023-03-23T08:45:46.706Z,4.600
2023-03-23T08:46:45.980Z,4.600
2023-03-23T08:47:46.393Z,5.200
2023-03-23T08:48:46.636Z,5.400
2023-03-23T08:49:46.912Z,5.500
2023-03-23T08:50:46.141Z,6.100
2023-03-23T08:51:46.406Z,5.400
2023-03-23T08:52:46.727Z,5.300
2023-03-23T08:53:46.788Z,4.800
2023-03-23T08:54:46.032Z,5.200
2023-03-23T08:55:46.357Z,4.800
2023-03-23T08:56:46.646Z,4.800
2023-03-23T08:57:45.864Z,4.700
2023-03-23T08:58:46.040Z,5.200
2023-03-23T08:59:46.487Z,4.800
2023-03-23T09:00:54.718Z,4.800
2023-03-23T09:01:46.122Z,4.700
2023-03-23T09:02:46.517Z,5.000
2023-03-23T09:03:46.737Z,5.400
2023-03-23T09:05:46.101Z,4.700
2023-03-23T09:06:46.329Z,5.100
2023-03-23T09:07:46.608Z,5.100
2023-03-23T09:08:45.840Z,5.000
2023-03-23T09:09:47.133Z,4.600
2023-03-23T09:10:46.763Z,4.500
2023-03-23T09:11:45.990Z,4.600
2023-03-23T09:12:46.265Z,4.300
2023-03-23T09:13:46.458Z,4.900
2023-03-23T09:14:46.728Z,5.300
2023-03-23T09:15:55.461Z,4.700
2023-03-23T09:16:46.336Z,4.400
2023-03-23T09:17:46.561Z,4.800
2023-03-23T09:18:46.243Z,4.700
2023-03-23T09:19:46.585Z,4.900
2023-03-23T09:20:46.489Z,4.900
2023-03-23T09:21:51.564Z,4.700
2023-03-23T09:22:46.764Z,4.300
2023-03-23T09:24:46.251Z,4.400
2023-03-23T09:25:46.589Z,4.300
2023-03-23T09:26:46.888Z,4.400
2023-03-23T09:27:46.189Z,3.400
2023-03-23T09:28:46.469Z,4.300
2023-03-23T09:29:46.717Z,4.700
2023-03-23T09:30:53.154Z,4.200
2023-03-23T09:32:45.910Z,3.800
2023-03-23T09:33:47.069Z,4.500
2023-03-23T09:34:46.436Z,4.700
2023-03-23T09:35:46.683Z,4.300
2023-03-23T09:36:45.957Z,4.500
2023-03-23T09:37:47.401Z,4.400
2023-03-23T09:38:46.702Z,4.500
2023-03-23T09:39:47.863Z,4.200
2023-03-23T09:41:50.875Z,4.300
2023-03-23T09:42:50.253Z,4.400
2023-03-23T09:43:50.701Z,4.300
2023-03-23T09:44:50.332Z,4.600
2023-03-23T09:45:50.669Z,4.300
2023-03-23T09:46:49.965Z,4.700
2023-03-23T09:47:50.230Z,4.600
2023-03-23T09:48:50.562Z,5.000
2023-03-23T09:49:54.844Z,6.600
2023-03-23T09:51:50.318Z,11.200
2023-03-23T09:52:50.640Z,7.100
2023-03-23T09:53:49.937Z,5.100
2023-03-23T09:54:56.336Z,7.700
2023-03-23T09:55:57.787Z,7.500
2023-03-23T09:56:56.788Z,6.700
2023-03-23T09:57:57.007Z,6.800
2023-03-23T09:58:56.809Z,6.400
2023-03-23T09:59:56.917Z,6.500
2023-03-23T10:00:56.821Z,5.500
2023-03-23T10:02:51.105Z,4.800
2023-03-23T10:03:50.276Z,5.200
2023-03-23T10:04:50.514Z,5.100
2023-03-23T10:05:50.973Z,4.500
2023-03-23T10:06:50.861Z,4.500
2023-03-23T10:07:50.081Z,4.800
2023-03-23T10:08:57.261Z,6.100
2023-03-23T10:10:50.033Z,5.100
2023-03-23T10:11:50.250Z,5.300
2023-03-23T10:12:50.774Z,4.700
2023-03-23T10:13:50.033Z,5.000
2023-03-23T10:14:50.345Z,4.900
2023-03-23T10:15:50.673Z,4.600
2023-03-23T10:16:50.009Z,5.000
2023-03-23T10:17:50.446Z,5.200
2023-03-23T10:18:50.943Z,4.500
2023-03-23T10:19:50.189Z,4.600
2023-03-23T10:20:50.623Z,5.100
2023-03-23T10:21:50.856Z,4.600
2023-03-23T10:22:50.061Z,4.600
2023-03-23T10:23:50.305Z,4.400
2023-03-23T10:24:50.589Z,4.500
2023-03-23T10:25:49.916Z,4.500
2023-03-23T10:26:50.210Z,4.500
2023-03-23T10:27:50.464Z,4.600
2023-03-23T10:28:50.801Z,5.000
2023-03-23T10:29:50.067Z,4.700
2023-03-23T10:30:50.460Z,4.800
2023-03-23T10:31:50.700Z,4.500
2023-03-23T10:32:49.908Z,4.400
2023-03-23T10:33:50.169Z,4.300
2023-03-23T10:34:50.515Z,3.900
2023-03-23T10:35:50.896Z,4.400
2023-03-23T10:36:50.456Z,4.400
2023-03-23T10:37:50.734Z,3.900
2023-03-23T10:38:50.229Z,4.100
2023-03-23T10:39:50.525Z,3.900
2023-03-23T10:40:55.501Z,3.600
2023-03-23T10:41:50.794Z,4.400
2023-03-23T10:43:50.538Z,3.900
2023-03-23T10:44:50.758Z,4.100
2023-03-23T10:46:00.098Z,4.100
2023-03-23T10:47:03.469Z,4.100
2023-03-23T10:48:51.741Z,4.000
2023-03-23T10:49:51.036Z,3.700
2023-03-23T10:50:51.334Z,3.500
2023-03-23T10:51:51.658Z,3.700
2023-03-23T10:53:51.096Z,3.600
2023-03-23T10:54:51.415Z,3.500
2023-03-23T10:55:51.632Z,3.400
2023-03-23T10:57:02.665Z,3.400
2023-03-23T10:58:52.213Z,2.800
2023-03-23T10:59:52.533Z,3.500
2023-03-23T11:00:53.322Z,3.400
2023-03-23T11:01:52.737Z,3.000
2023-03-23T11:02:56.929Z,2.600
2023-03-23T11:03:52.213Z,2.700
2023-03-23T11:04:52.469Z,2.800
2023-03-23T11:05:53.559Z,2.500
2023-03-23T11:06:52.882Z,2.300
2023-03-23T11:07:52.078Z,2.400
2023-03-23T11:08:52.358Z,2.300
2023-03-23T11:09:52.595Z,2.600
2023-03-23T11:10:53.406Z,2.400
2023-03-23T11:12:52.569Z,2.000
2023-03-23T11:13:52.794Z,1.800
2023-03-23T11:14:51.999Z,2.600
2023-03-23T11:15:52.184Z,2.100
2023-03-23T11:16:52.413Z,2.300
2023-03-23T11:17:52.653Z,2.000
2023-03-23T11:18:52.113Z,2.300
2023-03-23T11:19:52.323Z,1.900
2023-03-23T11:20:52.560Z,2.300
2023-03-23T11:21:52.809Z,2.300
2023-03-23T11:22:52.420Z,2.200
2023-03-23T11:24:00.548Z,2.000
2023-03-23T11:25:55.768Z,2.200
2023-03-23T11:27:04.808Z,2.300
2023-03-23T11:27:55.041Z,2.100
2023-03-23T11:28:55.366Z,2.500
2023-03-23T11:29:58.530Z,2.100
2023-03-23T11:30:56.880Z,2.500
2023-03-23T11:32:55.312Z,2.400
2023-03-23T11:34:05.746Z,2.200
2023-03-23T11:34:56.587Z,2.400
2023-03-23T11:36:59.002Z,2.300
2023-03-23T11:37:57.289Z,2.000
2023-03-23T11:38:57.526Z,2.300
2023-03-23T11:39:57.790Z,2.100
2023-03-23T11:40:57.141Z,2.000
2023-03-23T11:42:06.971Z,2.300
2023-03-23T11:42:57.397Z,1.900
2023-03-23T11:43:57.630Z,2.700
2023-03-23T11:44:56.873Z,2.400
2023-03-23T11:45:57.647Z,2.300
2023-03-23T11:46:56.958Z,2.200
2023-03-23T11:47:57.157Z,2.300
2023-03-23T11:48:57.465Z,2.200
2023-03-23T11:49:59.706Z,2.600
2023-03-23T11:50:56.885Z,2.500
2023-03-23T11:51:57.130Z,2.700
2023-03-23T11:52:57.344Z,2.500
2023-03-23T11:53:57.600Z,2.300
2023-03-23T11:54:59.087Z,2.500
2023-03-23T11:55:57.830Z,2.600
2023-03-23T11:56:57.140Z,2.500
2023-03-23T11:57:57.421Z,2.400
2023-03-23T11:58:57.636Z,2.300
2023-03-23T11:59:56.965Z,2.600
2023-03-23T12:00:57.285Z,2.700
2023-03-23T12:02:01.311Z,2.700
2023-03-23T12:04:00.600Z,2.500
2023-03-23T12:05:01.720Z,2.200
2023-03-23T12:05:59.991Z,3.300
2023-03-23T12:07:01.926Z,2.600
2023-03-23T12:08:00.154Z,2.200
2023-03-23T12:09:00.502Z,2.700
2023-03-23T12:10:00.801Z,2.500
2023-03-23T12:11:06.652Z,2.700
2023-03-23T12:12:00.030Z,3.200
2023-03-23T12:13:00.330Z,2.900
2023-03-23T12:14:07.317Z,2.900
2023-03-23T12:17:00.328Z,2.800
2023-03-23T12:18:00.809Z,2.800
2023-03-23T12:19:00.157Z,2.400
2023-03-23T12:20:00.441Z,3.000
2023-03-23T12:21:05.594Z,2.900
2023-03-23T12:22:00.736Z,3.000
2023-03-23T12:23:00.248Z,2.600
2023-03-23T12:24:01.400Z,2.600
2023-03-23T12:25:00.030Z,2.900
2023-03-23T12:26:00.516Z,2.300
2023-03-23T12:27:00.813Z,2.700
2023-03-23T12:28:00.036Z,2.400
2023-03-23T12:29:00.309Z,2.700
2023-03-23T12:30:00.540Z,3.100
2023-03-23T12:31:00.756Z,3.000
2023-03-23T12:31:59.919Z,2.300
2023-03-23T12:33:00.151Z,2.400
2023-03-23T12:34:00.578Z,2.600
2023-03-23T12:35:00.824Z,3.800
2023-03-23T12:36:00.459Z,4.100
2023-03-23T12:37:00.961Z,2.900
2023-03-23T12:38:00.181Z,2.700
2023-03-23T12:39:00.509Z,2.400
2023-03-23T12:40:00.789Z,2.600
2023-03-23T12:41:02.398Z,2.800
2023-03-23T12:42:00.772Z,2.600
2023-03-23T12:44:00.221Z,2.200
2023-03-23T12:45:00.507Z,2.400
2023-03-23T12:46:01.139Z,2.600
2023-03-23T12:47:00.372Z,2.300
2023-03-23T12:48:00.669Z,2.200
2023-03-23T12:48:59.889Z,2.200
2023-03-23T12:50:00.154Z,2.000
2023-03-23T12:51:00.437Z,2.400
2023-03-23T12:52:00.685Z,2.500
2023-03-23T12:52:59.954Z,2.200
2023-03-23T12:54:00.261Z,2.700
2023-03-23T12:56:00.959Z,2.100
2023-03-23T12:57:00.296Z,2.300
2023-03-23T12:58:00.592Z,2.200
2023-03-23T12:59:01.700Z,2.200
2023-03-23T12:59:59.934Z,2.100
2023-03-23T13:01:00.251Z,2.100
2023-03-23T13:02:00.523Z,2.100
2023-03-23T13:03:00.841Z,2.200
2023-03-23T13:04:00.148Z,2.500
2023-03-23T13:05:00.537Z,2.000
2023-03-23T13:06:00.769Z,2.200
2023-03-23T13:07:00.037Z,2.200
2023-03-23T13:08:00.361Z,2.200
2023-03-23T13:09:00.710Z,2.100
2023-03-23T13:10:00.006Z,2.200
2023-03-23T13:11:00.119Z,2.000
2023-03-23T13:12:00.362Z,2.100
2023-03-23T13:13:00.761Z,2.400
2023-03-23T13:14:09.517Z,2.300
2023-03-23T13:15:00.713Z,2.300
2023-03-23T13:16:00.266Z,2.400
2023-03-23T13:17:00.492Z,2.400
2023-03-23T13:18:00.769Z,2.300
2023-03-23T13:19:00.018Z,2.100
2023-03-23T13:20:00.301Z,2.100
2023-03-23T13:21:00.610Z,2.000
2023-03-23T13:22:07.612Z,1.900
2023-03-23T13:23:00.892Z,2.300
2023-03-23T13:24:00.126Z,1.900
2023-03-23T13:25:03.488Z,2.500
2023-03-23T13:26:00.733Z,2.200
2023-03-23T13:29:00.320Z,2.100
2023-03-23T13:30:00.601Z,2.300
2023-03-23T13:31:00.813Z,2.200
2023-03-23T13:32:00.109Z,2.100
2023-03-23T13:33:10.194Z,2.000
2023-03-23T13:34:00.466Z,2.200
2023-03-23T13:35:00.789Z,2.100
2023-03-23T13:36:00.742Z,2.200
2023-03-23T13:37:01.172Z,2.000
2023-03-23T13:38:00.442Z,2.100
2023-03-23T13:39:00.685Z,2.400
2023-03-23T13:40:00.894Z,2.600
2023-03-23T13:42:00.869Z,2.000
2023-03-23T13:43:00.182Z,2.300
2023-03-23T13:44:00.422Z,2.000
2023-03-23T13:45:00.600Z,2.200
2023-03-23T13:46:01.166Z,2.100
2023-03-23T13:47:00.358Z,2.500
2023-03-23T13:48:00.569Z,2.100
2023-03-23T13:49:02.846Z,2.300
2023-03-23T13:51:01.812Z,2.200
2023-03-23T13:52:01.173Z,2.500
2023-03-23T13:53:01.592Z,2.500
2023-03-23T13:54:00.942Z,3.000
2023-03-23T13:55:01.242Z,2.800
2023-03-23T13:56:03.434Z,2.500
2023-03-23T13:57:01.894Z,2.300
2023-03-23T13:58:01.246Z,2.500
2023-03-23T13:59:03.448Z,2.600
2023-03-23T14:01:00.973Z,2.700
2023-03-23T14:02:01.208Z,2.700
2023-03-23T14:03:01.429Z,2.600
2023-03-23T14:04:01.733Z,2.800
2023-03-23T14:06:01.201Z,2.400